Terminal Aerodrome Forecast
Issued by NWS North Platte, NE

Home | Current Version | Previous Version | Graphics & Text | Print | Product List | Glossary On
Versions: 1 2 3 4 5 6 7 8 9 10 11 12 13
981
FTUS43 KLBF 220520
TAFVTN
TAF
KVTN 220520Z 2206/2306 29005KT P6SM SCT150
     FM221600 30009KT P6SM SCT200
     FM230200 28005KT P6SM FEW250=

USA.gov is the U.S. government's official web portal to all federal, state and local government web resources and services.